sensor_id;sensor_type;location;lat;lon;timestamp;pressure;altitude;pressure_sealevel;temperature;humidity
75051;BME280;63628;47.656;11.310;2022-09-27T00:00:03;93314.63;;;13.88;75.25
75051;BME280;63628;47.656;11.310;2022-09-27T00:02:29;93309.38;;;13.83;75.76
75051;BME280;63628;47.656;11.310;2022-09-27T00:04:56;93313.63;;;13.84;75.73
75051;BME280;63628;47.656;11.310;2022-09-27T00:07:23;93308.81;;;13.86;75.00
75051;BME280;63628;47.656;11.310;2022-09-27T00:09:50;93312.97;;;13.92;75.27
75051;BME280;63628;47.656;11.310;2022-09-27T00:12:16;93303.00;;;13.84;75.46
75051;BME280;63628;47.656;11.310;2022-09-27T00:14:42;93306.22;;;13.81;75.72
75051;BME280;63628;47.656;11.310;2022-09-27T00:17:09;93303.56;;;13.81;75.59
75051;BME280;63628;47.656;11.310;2022-09-27T00:19:35;93295.94;;;13.56;69.59
75051;BME280;63628;47.656;11.310;2022-09-27T00:22:02;93292.72;;;12.92;77.71
75051;BME280;63628;47.656;11.310;2022-09-27T00:24:29;93292.91;;;13.62;75.92
75051;BME280;63628;47.656;11.310;2022-09-27T00:26:56;93294.88;;;13.76;75.83
75051;BME280;63628;47.656;11.310;2022-09-27T00:29:22;93287.69;;;13.76;75.69
75051;BME280;63628;47.656;11.310;2022-09-27T00:31:49;93285.03;;;13.76;75.83
75051;BME280;63628;47.656;11.310;2022-09-27T00:34:21;93278.25;;;13.84;75.52
75051;BME280;63628;47.656;11.310;2022-09-27T00:36:50;93282.88;;;13.78;76.02
75051;BME280;63628;47.656;11.310;2022-09-27T00:39:17;93285.03;;;13.76;75.98
75051;BME280;63628;47.656;11.310;2022-09-27T00:41:44;93286.91;;;13.76;75.66
75051;BME280;63628;47.656;11.310;2022-09-27T00:47:09;93283.66;;;13.79;75.67
75051;BME280;63628;47.656;11.310;2022-09-27T00:49:45;93279.13;;;13.79;75.27
75051;BME280;63628;47.656;11.310;2022-09-27T00:52:20;93277.34;;;13.75;75.35
75051;BME280;63628;47.656;11.310;2022-09-27T00:54:52;93282.16;;;13.73;75.30
75051;BME280;63628;47.656;11.310;2022-09-27T00:57:20;93286.41;;;13.74;75.77
75051;BME280;63628;47.656;11.310;2022-09-27T00:59:51;93273.59;;;13.76;75.24
75051;BME280;63628;47.656;11.310;2022-09-27T01:02:19;93274.03;;;13.83;75.21
75051;BME280;63628;47.656;11.310;2022-09-27T01:04:46;93281.91;;;12.07;71.48
75051;BME280;63628;47.656;11.310;2022-09-27T01:07:13;93279.91;;;13.23;76.60
75051;BME280;63628;47.656;11.310;2022-09-27T01:09:40;93276.19;;;13.62;76.13
75051;BME280;63628;47.656;11.310;2022-09-27T01:15:04;93278.25;;;13.65;75.90
75051;BME280;63628;47.656;11.310;2022-09-27T01:17:43;93272.16;;;13.64;75.93
75051;BME280;63628;47.656;11.310;2022-09-27T01:20:27;93279.50;;;13.73;75.31
75051;BME280;63628;47.656;11.310;2022-09-27T01:25:54;93276.13;;;13.67;75.79
75051;BME280;63628;47.656;11.310;2022-09-27T01:28:54;93282.16;;;13.73;75.22
75051;BME280;63628;47.656;11.310;2022-09-27T01:34:35;93280.75;;;11.45;73.97
75051;BME280;63628;47.656;11.310;2022-09-27T01:37:20;93263.25;;;12.70;78.89
75051;BME280;63628;47.656;11.310;2022-09-27T01:39:58;93267.44;;;13.43;76.31
75051;BME280;63628;47.656;11.310;2022-09-27T01:43:04;93276.53;;;13.55;76.25
75051;BME280;63628;47.656;11.310;2022-09-27T01:45:36;93279.63;;;13.62;75.22
75051;BME280;63628;47.656;11.310;2022-09-27T01:48:13;93280.06;;;11.68;73.27
75051;BME280;63628;47.656;11.310;2022-09-27T01:50:51;93267.66;;;12.56;78.29
75051;BME280;63628;47.656;11.310;2022-09-27T01:53:22;93267.00;;;13.36;76.68
75051;BME280;63628;47.656;11.310;2022-09-27T01:55:52;93263.63;;;13.49;76.10
75051;BME280;63628;47.656;11.310;2022-09-27T01:58:29;93270.22;;;13.51;76.31
75051;BME280;63628;47.656;11.310;2022-09-27T02:00:59;93274.47;;;13.52;76.40
75051;BME280;63628;47.656;11.310;2022-09-27T02:03:30;93263.03;;;13.52;75.99
75051;BME280;63628;47.656;11.310;2022-09-27T02:06:04;93266.19;;;13.54;75.90
75051;BME280;63628;47.656;11.310;2022-09-27T02:08:38;93252.19;;;13.48;75.99
75051;BME280;63628;47.656;11.310;2022-09-27T02:11:13;93266.47;;;13.52;76.23
75051;BME280;63628;47.656;11.310;2022-09-27T02:13:52;93272.38;;;13.49;75.70
75051;BME280;63628;47.656;11.310;2022-09-27T02:16:46;93277.13;;;13.52;75.66
75051;BME280;63628;47.656;11.310;2022-09-27T02:22:37;93274.47;;;13.52;75.68
75051;BME280;63628;47.656;11.310;2022-09-27T02:27:56;93279.50;;;13.54;75.43
75051;BME280;63628;47.656;11.310;2022-09-27T02:30:25;93280.84;;;13.51;75.80
75051;BME280;63628;47.656;11.310;2022-09-27T02:32:52;93280.34;;;13.49;75.92
75051;BME280;63628;47.656;11.310;2022-09-27T02:35:26;93261.34;;;12.52;71.15
75051;BME280;63628;47.656;11.310;2022-09-27T02:37:55;93240.53;;;9.73;81.61
75051;BME280;63628;47.656;11.310;2022-09-27T02:40:23;93257.09;;;11.54;82.69
75051;BME280;63628;47.656;11.310;2022-09-27T02:42:50;93279.50;;;13.11;77.18
75051;BME280;63628;47.656;11.310;2022-09-27T02:45:18;93302.63;;;13.35;76.45
75051;BME280;63628;47.656;11.310;2022-09-27T02:53:52;93284.66;;;13.26;76.52
75051;BME280;63628;47.656;11.310;2022-09-27T02:56:35;93271.88;;;13.28;76.20
75051;BME280;63628;47.656;11.310;2022-09-27T02:59:27;93263.84;;;13.33;75.64
75051;BME280;63628;47.656;11.310;2022-09-27T03:02:26;93238.09;;;12.86;70.47
75051;BME280;63628;47.656;11.310;2022-09-27T03:05:08;93220.97;;;13.21;75.98
75051;BME280;63628;47.656;11.310;2022-09-27T03:07:37;93238.63;;;13.31;76.15
75051;BME280;63628;47.656;11.310;2022-09-27T03:10:04;93215.22;;;13.33;75.95
75051;BME280;63628;47.656;11.310;2022-09-27T03:12:32;93222.09;;;13.34;75.79
75051;BME280;63628;47.656;11.310;2022-09-27T03:14:59;93218.44;;;13.30;75.91
75051;BME280;63628;47.656;11.310;2022-09-27T03:17:26;93217.38;;;13.31;75.73
75051;BME280;63628;47.656;11.310;2022-09-27T03:19:52;93201.94;;;13.33;75.81
75051;BME280;63628;47.656;11.310;2022-09-27T03:22:19;93197.47;;;13.28;75.69
75051;BME280;63628;47.656;11.310;2022-09-27T03:24:45;93179.47;;;13.25;75.84
75051;BME280;63628;47.656;11.310;2022-09-27T03:27:12;93171.34;;;13.36;75.64
75051;BME280;63628;47.656;11.310;2022-09-27T03:29:38;93149.88;;;13.32;75.63
75051;BME280;63628;47.656;11.310;2022-09-27T03:32:04;93146.22;;;13.28;75.34
75051;BME280;63628;47.656;11.310;2022-09-27T03:34:31;93140.09;;;13.27;75.72
75051;BME280;63628;47.656;11.310;2022-09-27T03:36:57;93146.22;;;13.28;75.76
75051;BME280;63628;47.656;11.310;2022-09-27T03:39:24;93143.84;;;13.26;75.86
75051;BME280;63628;47.656;11.310;2022-09-27T03:41:50;93141.69;;;13.28;75.61
75051;BME280;63628;47.656;11.310;2022-09-27T03:44:17;93143.47;;;13.33;75.35
75051;BME280;63628;47.656;11.310;2022-09-27T03:46:43;93140.03;;;13.32;74.82
75051;BME280;63628;47.656;11.310;2022-09-27T03:49:10;93132.63;;;13.29;75.38
75051;BME280;63628;47.656;11.310;2022-09-27T03:51:36;93133.81;;;13.23;75.58
75051;BME280;63628;47.656;11.310;2022-09-27T03:54:03;93136.66;;;13.27;75.50
75051;BME280;63628;47.656;11.310;2022-09-27T03:56:29;93138.81;;;13.25;75.60
75051;BME280;63628;47.656;11.310;2022-09-27T03:58:56;93137.25;;;13.24;75.51
75051;BME280;63628;47.656;11.310;2022-09-27T04:01:22;93154.56;;;13.21;75.70
75051;BME280;63628;47.656;11.310;2022-09-27T04:03:49;93157.75;;;12.38;72.05
75051;BME280;63628;47.656;11.310;2022-09-27T04:06:15;93157.09;;;12.89;75.24
75051;BME280;63628;47.656;11.310;2022-09-27T04:08:43;93167.34;;;12.10;78.24
75051;BME280;63628;47.656;11.310;2022-09-27T04:11:10;93163.56;;;12.83;72.11
75051;BME280;63628;47.656;11.310;2022-09-27T04:13:36;93166.16;;;12.21;76.69
75051;BME280;63628;47.656;11.310;2022-09-27T04:16:03;93173.13;;;13.02;76.25
75051;BME280;63628;47.656;11.310;2022-09-27T04:18:29;93166.78;;;12.98;70.90
75051;BME280;63628;47.656;11.310;2022-09-27T04:20:56;93164.19;;;10.67;77.86
75051;BME280;63628;47.656;11.310;2022-09-27T04:23:22;93153.06;;;12.54;77.80
75051;BME280;63628;47.656;11.310;2022-09-27T04:25:55;93161.53;;;12.93;76.18
75051;BME280;63628;47.656;11.310;2022-09-27T04:28:21;93156.13;;;13.04;76.13
75051;BME280;63628;47.656;11.310;2022-09-27T04:30:48;93158.69;;;13.09;75.97
75051;BME280;63628;47.656;11.310;2022-09-27T04:33:15;93168.75;;;13.12;75.96
75051;BME280;63628;47.656;11.310;2022-09-27T04:35:42;93162.94;;;13.10;76.03
75051;BME280;63628;47.656;11.310;2022-09-27T04:38:27;93156.53;;;13.11;75.76
75051;BME280;63628;47.656;11.310;2022-09-27T04:40:53;93163.72;;;13.10;75.89
75051;BME280;63628;47.656;11.310;2022-09-27T04:43:20;93186.53;;;13.11;76.12
75051;BME280;63628;47.656;11.310;2022-09-27T04:45:46;93195.31;;;13.12;75.74
75051;BME280;63628;47.656;11.310;2022-09-27T04:48:13;93213.09;;;13.11;75.99
75051;BME280;63628;47.656;11.310;2022-09-27T04:50:39;93234.84;;;13.13;75.33
75051;BME280;63628;47.656;11.310;2022-09-27T04:53:06;93243.41;;;13.10;75.74
75051;BME280;63628;47.656;11.310;2022-09-27T04:55:32;93256.19;;;12.84;76.71
75051;BME280;63628;47.656;11.310;2022-09-27T04:57:59;93267.94;;;12.78;73.58
75051;BME280;63628;47.656;11.310;2022-09-27T05:00:26;93252.66;;;10.10;81.58
75051;BME280;63628;47.656;11.310;2022-09-27T05:02:54;93255.81;;;11.51;77.64
75051;BME280;63628;47.656;11.310;2022-09-27T05:05:20;93268.22;;;12.77;76.99
75051;BME280;63628;47.656;11.310;2022-09-27T05:07:47;93276.66;;;12.02;73.57
75051;BME280;63628;47.656;11.310;2022-09-27T05:10:13;93271.00;;;12.43;75.18
75051;BME280;63628;47.656;11.310;2022-09-27T05:12:40;93276.28;;;12.14;78.54
75051;BME280;63628;47.656;11.310;2022-09-27T05:15:07;93276.97;;;12.77;76.27
75051;BME280;63628;47.656;11.310;2022-09-27T05:17:33;93263.53;;;12.16;72.35
75051;BME280;63628;47.656;11.310;2022-09-27T05:20:01;93263.25;;;12.17;78.06
75051;BME280;63628;47.656;11.310;2022-09-27T05:22:28;93257.72;;;12.66;76.52
75051;BME280;63628;47.656;11.310;2022-09-27T05:24:54;93252.22;;;12.82;76.19
75051;BME280;63628;47.656;11.310;2022-09-27T05:27:21;93264.63;;;12.67;75.99
75051;BME280;63628;47.656;11.310;2022-09-27T05:29:47;93270.75;;;12.87;76.24
75051;BME280;63628;47.656;11.310;2022-09-27T05:32:14;93274.47;;;12.86;76.04
75051;BME280;63628;47.656;11.310;2022-09-27T05:34:40;93266.53;;;12.86;75.51
75051;BME280;63628;47.656;11.310;2022-09-27T05:37:07;93276.97;;;12.77;76.15
75051;BME280;63628;47.656;11.310;2022-09-27T05:39:33;93277.00;;;11.51;74.42
75051;BME280;63628;47.656;11.310;2022-09-27T05:42:00;93280.81;;;12.66;76.91
75051;BME280;63628;47.656;11.310;2022-09-27T05:44:28;93286.53;;;12.78;75.75
75051;BME280;63628;47.656;11.310;2022-09-27T05:46:54;93281.16;;;12.59;74.79
75051;BME280;63628;47.656;11.310;2022-09-27T05:49:20;93282.50;;;12.81;75.88
75051;BME280;63628;47.656;11.310;2022-09-27T05:51:47;93282.78;;;12.79;75.87
75051;BME280;63628;47.656;11.310;2022-09-27T05:54:13;93289.97;;;12.55;70.53
75051;BME280;63628;47.656;11.310;2022-09-27T05:56:40;93285.44;;;12.79;75.64
75051;BME280;63628;47.656;11.310;2022-09-27T05:59:06;93288.03;;;12.84;75.97
75051;BME280;63628;47.656;11.310;2022-09-27T06:01:33;93297.31;;;12.87;75.86
75051;BME280;63628;47.656;11.310;2022-09-27T06:04:02;93298.22;;;12.77;75.99
75051;BME280;63628;47.656;11.310;2022-09-27T06:06:30;93317.66;;;12.73;76.01
75051;BME280;63628;47.656;11.310;2022-09-27T06:08:59;93309.28;;;12.60;76.21
75051;BME280;63628;47.656;11.310;2022-09-27T06:11:27;93318.00;;;11.04;77.40
75051;BME280;63628;47.656;11.310;2022-09-27T06:13:53;93327.66;;;11.89;79.01
75051;BME280;63628;47.656;11.310;2022-09-27T06:16:20;93318.50;;;12.68;76.44
75051;BME280;63628;47.656;11.310;2022-09-27T06:18:46;93320.41;;;12.33;78.13
75051;BME280;63628;47.656;11.310;2022-09-27T06:21:12;93316.28;;;12.17;77.90
75051;BME280;63628;47.656;11.310;2022-09-27T06:23:39;93331.81;;;12.63;76.27
75051;BME280;63628;47.656;11.310;2022-09-27T06:26:06;93336.38;;;11.94;78.91
75051;BME280;63628;47.656;11.310;2022-09-27T06:28:33;93339.22;;;12.03;77.77
75051;BME280;63628;47.656;11.310;2022-09-27T06:31:05;93342.28;;;12.49;75.83
75051;BME280;63628;47.656;11.310;2022-09-27T06:33:32;93331.97;;;12.48;76.11
75051;BME280;63628;47.656;11.310;2022-09-27T06:36:06;93331.00;;;12.33;75.76
75051;BME280;63628;47.656;11.310;2022-09-27T06:38:33;93336.09;;;12.59;75.39
75051;BME280;63628;47.656;11.310;2022-09-27T06:41:01;93334.31;;;10.57;75.80
75051;BME280;63628;47.656;11.310;2022-09-27T06:43:28;93342.50;;;12.24;76.52
75051;BME280;63628;47.656;11.310;2022-09-27T06:45:58;93331.97;;;12.14;74.75
75051;BME280;63628;47.656;11.310;2022-09-27T06:48:31;93330.91;;;12.49;75.49
75051;BME280;63628;47.656;11.310;2022-09-27T06:50:58;93340.16;;;12.17;76.58
75051;BME280;63628;47.656;11.310;2022-09-27T06:53:25;93346.31;;;12.47;75.71
75051;BME280;63628;47.656;11.310;2022-09-27T06:55:52;93337.28;;;12.48;75.56
75051;BME280;63628;47.656;11.310;2022-09-27T06:58:18;93343.38;;;11.70;75.40
75051;BME280;63628;47.656;11.310;2022-09-27T07:01:03;93343.69;;;12.07;76.62
75051;BME280;63628;47.656;11.310;2022-09-27T07:03:30;93350.09;;;12.01;70.70
75051;BME280;63628;47.656;11.310;2022-09-27T07:06:14;93353.97;;;12.48;75.68
75051;BME280;63628;47.656;11.310;2022-09-27T07:08:41;93356.03;;;12.56;75.08
75051;BME280;63628;47.656;11.310;2022-09-27T07:11:08;93355.94;;;11.54;76.68
75051;BME280;63628;47.656;11.310;2022-09-27T07:13:35;93355.03;;;11.79;70.79
75051;BME280;63628;47.656;11.310;2022-09-27T07:16:05;93342.53;;;10.05;78.44
75051;BME280;63628;47.656;11.310;2022-09-27T07:18:32;93367.63;;;12.31;75.90
75051;BME280;63628;47.656;11.310;2022-09-27T07:20:59;93358.72;;;11.24;72.16
75051;BME280;63628;47.656;11.310;2022-09-27T07:23:26;93361.25;;;12.32;75.90
75051;BME280;63628;47.656;11.310;2022-09-27T07:25:53;93369.50;;;11.97;76.24
75051;BME280;63628;47.656;11.310;2022-09-27T07:28:19;93381.19;;;11.91;70.23
75051;BME280;63628;47.656;11.310;2022-09-27T07:30:48;93388.19;;;12.16;76.49
75051;BME280;63628;47.656;11.310;2022-09-27T07:33:15;93390.78;;;11.22;77.03
75051;BME280;63628;47.656;11.310;2022-09-27T07:35:42;93383.25;;;12.38;76.40
75051;BME280;63628;47.656;11.310;2022-09-27T07:38:10;93393.72;;;12.19;70.38
75051;BME280;63628;47.656;11.310;2022-09-27T07:40:38;93382.69;;;11.53;70.52
75051;BME280;63628;47.656;11.310;2022-09-27T07:43:06;93386.78;;;12.23;75.81
75051;BME280;63628;47.656;11.310;2022-09-27T07:45:34;93396.34;;;11.85;76.72
75051;BME280;63628;47.656;11.310;2022-09-27T07:48:06;93382.72;;;12.02;72.08
75051;BME280;63628;47.656;11.310;2022-09-27T07:50:33;93392.28;;;12.37;74.80
75051;BME280;63628;47.656;11.310;2022-09-27T07:53:00;93390.28;;;12.19;74.92
75051;BME280;63628;47.656;11.310;2022-09-27T07:55:27;93392.03;;;11.94;72.67
75051;BME280;63628;47.656;11.310;2022-09-27T07:58:01;93406.94;;;11.85;69.94
75051;BME280;63628;47.656;11.310;2022-09-27T08:00:28;93401.66;;;12.24;73.77
75051;BME280;63628;47.656;11.310;2022-09-27T08:02:54;93408.44;;;12.01;71.97
75051;BME280;63628;47.656;11.310;2022-09-27T08:05:21;93393.41;;;11.27;72.89
75051;BME280;63628;47.656;11.310;2022-09-27T08:07:53;93414.91;;;11.85;73.72
75051;BME280;63628;47.656;11.310;2022-09-27T08:10:19;93413.44;;;12.08;75.75
75051;BME280;63628;47.656;11.310;2022-09-27T08:12:46;93421.53;;;12.61;73.65
75051;BME280;63628;47.656;11.310;2022-09-27T08:15:12;93407.72;;;12.64;70.29
75051;BME280;63628;47.656;11.310;2022-09-27T08:17:38;93403.44;;;12.68;69.49
75051;BME280;63628;47.656;11.310;2022-09-27T08:20:05;93413.66;;;12.51;74.60
75051;BME280;63628;47.656;11.310;2022-09-27T08:22:32;93406.56;;;12.99;71.65
75051;BME280;63628;47.656;11.310;2022-09-27T08:24:58;93417.44;;;12.74;74.78
75051;BME280;63628;47.656;11.310;2022-09-27T08:27:25;93400.28;;;12.90;68.56
75051;BME280;63628;47.656;11.310;2022-09-27T08:29:51;93409.53;;;13.26;70.12
75051;BME280;63628;47.656;11.310;2022-09-27T08:32:17;93425.41;;;13.31;67.11
75051;BME280;63628;47.656;11.310;2022-09-27T08:34:48;93426.44;;;12.78;74.05
75051;BME280;63628;47.656;11.310;2022-09-27T08:37:15;93425.75;;;13.49;67.64
75051;BME280;63628;47.656;11.310;2022-09-27T08:39:41;93439.22;;;12.99;73.20
75051;BME280;63628;47.656;11.310;2022-09-27T08:45:11;93451.81;;;12.60;69.79
75051;BME280;63628;47.656;11.310;2022-09-27T08:47:43;93455.44;;;12.69;69.98
75051;BME280;63628;47.656;11.310;2022-09-27T08:50:24;93455.50;;;12.25;70.19
75051;BME280;63628;47.656;11.310;2022-09-27T08:52:57;93456.69;;;12.48;68.97
75051;BME280;63628;47.656;11.310;2022-09-27T08:57:58;93451.97;;;12.40;70.13
75051;BME280;63628;47.656;11.310;2022-09-27T09:00:27;93448.56;;;11.85;67.72
75051;BME280;63628;47.656;11.310;2022-09-27T09:02:55;93452.78;;;13.03;69.67
75051;BME280;63628;47.656;11.310;2022-09-27T09:05:29;93460.16;;;12.77;70.08
75051;BME280;63628;47.656;11.310;2022-09-27T09:08:06;93466.56;;;13.34;68.62
75051;BME280;63628;47.656;11.310;2022-09-27T09:13:44;93460.13;;;12.48;66.58
75051;BME280;63628;47.656;11.310;2022-09-27T09:19:04;93466.19;;;14.12;67.99
75051;BME280;63628;47.656;11.310;2022-09-27T09:24:44;93456.38;;;15.15;61.64
75051;BME280;63628;47.656;11.310;2022-09-27T09:30:13;93463.69;;;12.96;67.56
75051;BME280;63628;47.656;11.310;2022-09-27T09:33:12;93462.09;;;13.29;69.25
75051;BME280;63628;47.656;11.310;2022-09-27T09:35:47;93465.16;;;14.83;63.88
75051;BME280;63628;47.656;11.310;2022-09-27T09:38:25;93456.41;;;15.43;67.48
75051;BME280;63628;47.656;11.310;2022-09-27T09:46:27;93465.41;;;12.82;70.91
75051;BME280;63628;47.656;11.310;2022-09-27T09:49:02;93474.38;;;12.91;68.19
75051;BME280;63628;47.656;11.310;2022-09-27T09:51:37;93475.09;;;12.68;65.32
75051;BME280;63628;47.656;11.310;2022-09-27T09:56:42;93472.78;;;12.90;69.43
75051;BME280;63628;47.656;11.310;2022-09-27T09:59:20;93481.34;;;12.82;68.96
75051;BME280;63628;47.656;11.310;2022-09-27T10:01:49;93487.44;;;12.83;69.28
75051;BME280;63628;47.656;11.310;2022-09-27T10:04:22;93491.66;;;12.89;71.66
75051;BME280;63628;47.656;11.310;2022-09-27T10:06:50;93482.69;;;12.80;71.02
75051;BME280;63628;47.656;11.310;2022-09-27T10:09:23;93500.53;;;12.74;71.85
75051;BME280;63628;47.656;11.310;2022-09-27T10:11:49;93506.78;;;12.05;70.38
75051;BME280;63628;47.656;11.310;2022-09-27T10:14:19;93503.47;;;12.28;69.72
75051;BME280;63628;47.656;11.310;2022-09-27T10:16:48;93534.25;;;12.74;72.08
75051;BME280;63628;47.656;11.310;2022-09-27T10:19:16;93537.34;;;11.92;67.83
75051;BME280;63628;47.656;11.310;2022-09-27T10:21:44;93548.25;;;11.60;69.31
75051;BME280;63628;47.656;11.310;2022-09-27T10:24:14;93547.50;;;11.44;68.59
75051;BME280;63628;47.656;11.310;2022-09-27T10:26:46;93569.25;;;10.70;70.83
75051;BME280;63628;47.656;11.310;2022-09-27T10:29:14;93566.41;;;12.13;72.06
75051;BME280;63628;47.656;11.310;2022-09-27T10:31:43;93579.13;;;12.21;72.66
75051;BME280;63628;47.656;11.310;2022-09-27T10:34:32;93568.19;;;12.37;72.75
75051;BME280;63628;47.656;11.310;2022-09-27T10:39:38;93560.88;;;12.04;71.70
75051;BME280;63628;47.656;11.310;2022-09-27T10:44:45;93551.13;;;13.56;71.80
75051;BME280;63628;47.656;11.310;2022-09-27T10:47:16;93535.22;;;14.22;67.86
75051;BME280;63628;47.656;11.310;2022-09-27T10:49:49;93543.47;;;13.49;65.66
75051;BME280;63628;47.656;11.310;2022-09-27T10:52:20;93546.53;;;13.61;66.84
75051;BME280;63628;47.656;11.310;2022-09-27T10:54:56;93545.38;;;13.73;66.38
75051;BME280;63628;47.656;11.310;2022-09-27T10:57:26;93551.22;;;13.75;65.82
75051;BME280;63628;47.656;11.310;2022-09-27T11:02:52;93555.97;;;13.20;71.07
75051;BME280;63628;47.656;11.310;2022-09-27T11:07:53;93559.16;;;13.51;69.76
75051;BME280;63628;47.656;11.310;2022-09-27T11:10:24;93552.19;;;14.26;64.40
75051;BME280;63628;47.656;11.310;2022-09-27T11:13:21;93548.78;;;14.02;65.71
75051;BME280;63628;47.656;11.310;2022-09-27T11:18:40;93547.97;;;13.25;71.60
75051;BME280;63628;47.656;11.310;2022-09-27T11:21:21;93535.78;;;15.32;60.71
75051;BME280;63628;47.656;11.310;2022-09-27T11:32:13;93509.78;;;13.92;69.49
75051;BME280;63628;47.656;11.310;2022-09-27T11:34:52;93497.38;;;14.68;59.42
75051;BME280;63628;47.656;11.310;2022-09-27T11:37:34;93485.50;;;14.93;58.87
75051;BME280;63628;47.656;11.310;2022-09-27T11:40:34;93488.16;;;15.58;59.06
75051;BME280;63628;47.656;11.310;2022-09-27T11:43:15;93484.84;;;15.34;59.19
75051;BME280;63628;47.656;11.310;2022-09-27T11:45:54;93488.31;;;14.26;59.46
75051;BME280;63628;47.656;11.310;2022-09-27T12:00:19;93475.84;;;13.60;68.52
75051;BME280;63628;47.656;11.310;2022-09-27T12:03:14;93468.16;;;13.59;70.94
75051;BME280;63628;47.656;11.310;2022-09-27T12:06:04;93471.50;;;13.70;63.02
75051;BME280;63628;47.656;11.310;2022-09-27T12:08:39;93482.81;;;13.56;64.08
75051;BME280;63628;47.656;11.310;2022-09-27T12:11:49;93480.84;;;13.67;69.16
75051;BME280;63628;47.656;11.310;2022-09-27T12:14:22;93478.56;;;13.55;57.21
75051;BME280;63628;47.656;11.310;2022-09-27T12:16:53;93470.19;;;13.43;58.55
75051;BME280;63628;47.656;11.310;2022-09-27T12:19:24;93473.28;;;13.50;67.56
75051;BME280;63628;47.656;11.310;2022-09-27T12:21:55;93466.34;;;13.54;70.66
75051;BME280;63628;47.656;11.310;2022-09-27T12:24:24;93473.63;;;13.44;69.32
75051;BME280;63628;47.656;11.310;2022-09-27T12:26:53;93475.44;;;13.24;59.67
75051;BME280;63628;47.656;11.310;2022-09-27T12:29:25;93472.56;;;13.16;62.29
75051;BME280;63628;47.656;11.310;2022-09-27T12:32:14;93471.53;;;13.41;60.86
75051;BME280;63628;47.656;11.310;2022-09-27T12:37:28;93465.44;;;13.11;64.85
75051;BME280;63628;47.656;11.310;2022-09-27T12:40:04;93462.72;;;13.21;65.19
75051;BME280;63628;47.656;11.310;2022-09-27T12:42:40;93468.78;;;12.93;57.76
75051;BME280;63628;47.656;11.310;2022-09-27T12:45:12;93474.66;;;12.90;60.32
75051;BME280;63628;47.656;11.310;2022-09-27T12:50:27;93469.88;;;12.87;64.10
75051;BME280;63628;47.656;11.310;2022-09-27T12:53:02;93465.31;;;12.63;59.23
75051;BME280;63628;47.656;11.310;2022-09-27T12:55:42;93465.88;;;13.23;70.65
75051;BME280;63628;47.656;11.310;2022-09-27T12:58:33;93462.47;;;13.18;60.60
75051;BME280;63628;47.656;11.310;2022-09-27T13:01:20;93458.63;;;12.32;57.63
75051;BME280;63628;47.656;11.310;2022-09-27T13:06:49;93441.06;;;12.75;60.63
75051;BME280;63628;47.656;11.310;2022-09-27T13:09:36;93459.13;;;12.39;58.03
75051;BME280;63628;47.656;11.310;2022-09-27T13:12:20;93452.66;;;12.84;62.00
75051;BME280;63628;47.656;11.310;2022-09-27T13:22:51;93473.25;;;12.97;65.40
75051;BME280;63628;47.656;11.310;2022-09-27T13:31:09;93457.47;;;12.48;62.36
75051;BME280;63628;47.656;11.310;2022-09-27T13:33:51;93461.44;;;13.14;71.33
75051;BME280;63628;47.656;11.310;2022-09-27T13:44:23;93481.53;;;13.25;71.72
75051;BME280;63628;47.656;11.310;2022-09-27T13:47:02;93487.84;;;13.00;65.49
75051;BME280;63628;47.656;11.310;2022-09-27T13:49:47;93498.50;;;12.95;63.90
75051;BME280;63628;47.656;11.310;2022-09-27T13:52:35;93504.50;;;13.11;71.84
75051;BME280;63628;47.656;11.310;2022-09-27T13:55:17;93517.00;;;13.39;71.85
75051;BME280;63628;47.656;11.310;2022-09-27T13:57:55;93521.09;;;12.92;70.50
75051;BME280;63628;47.656;11.310;2022-09-27T14:00:26;93518.06;;;13.09;71.71
75051;BME280;63628;47.656;11.310;2022-09-27T14:05:50;93523.44;;;11.31;67.55
75051;BME280;63628;47.656;11.310;2022-09-27T14:08:38;93513.75;;;12.45;65.29
75051;BME280;63628;47.656;11.310;2022-09-27T14:11:18;93516.91;;;13.20;71.89
75051;BME280;63628;47.656;11.310;2022-09-27T14:13:47;93486.22;;;12.31;68.21
75051;BME280;63628;47.656;11.310;2022-09-27T14:16:16;93493.19;;;12.17;66.63
75051;BME280;63628;47.656;11.310;2022-09-27T14:18:47;93498.91;;;13.12;71.91
75051;BME280;63628;47.656;11.310;2022-09-27T14:21:21;93501.00;;;12.81;66.78
75051;BME280;63628;47.656;11.310;2022-09-27T14:23:51;93493.78;;;12.53;69.02
75051;BME280;63628;47.656;11.310;2022-09-27T14:26:26;93498.53;;;12.56;66.49
75051;BME280;63628;47.656;11.310;2022-09-27T14:28:52;93501.06;;;11.67;66.13
75051;BME280;63628;47.656;11.310;2022-09-27T14:31:25;93515.66;;;12.74;72.06
75051;BME280;63628;47.656;11.310;2022-09-27T14:34:04;93495.47;;;12.33;69.55
75051;BME280;63628;47.656;11.310;2022-09-27T14:36:32;93495.84;;;12.17;65.86
75051;BME280;63628;47.656;11.310;2022-09-27T14:39:23;93492.31;;;11.82;64.27
75051;BME280;63628;47.656;11.310;2022-09-27T14:41:50;93489.16;;;11.80;64.07
75051;BME280;63628;47.656;11.310;2022-09-27T14:44:18;93468.72;;;11.75;65.01
75051;BME280;63628;47.656;11.310;2022-09-27T14:47:16;93484.69;;;12.20;62.42
75051;BME280;63628;47.656;11.310;2022-09-27T14:49:55;93488.28;;;12.78;71.34
75051;BME280;63628;47.656;11.310;2022-09-27T14:52:33;93474.84;;;12.98;70.34
75051;BME280;63628;47.656;11.310;2022-09-27T14:55:07;93469.34;;;11.52;62.09
75051;BME280;63628;47.656;11.310;2022-09-27T14:57:35;93483.41;;;12.56;71.54
75051;BME280;63628;47.656;11.310;2022-09-27T15:02:44;93469.66;;;13.17;71.91
75051;BME280;63628;47.656;11.310;2022-09-27T15:05:15;93477.19;;;13.05;71.82
75051;BME280;63628;47.656;11.310;2022-09-27T15:07:44;93495.66;;;13.20;72.06
75051;BME280;63628;47.656;11.310;2022-09-27T15:10:19;93501.50;;;13.22;72.17